sensor_id;sensor_type;location;lat;lon;timestamp;pressure;altitude;pressure_sealevel;temperature;humidity
14902;BME280;7542;49.078;9.194;2023-05-07T00:00:37;98510.03;;;30.35;30.78
14902;BME280;7542;49.078;9.194;2023-05-07T00:01:39;98506.81;;;30.33;30.57
14902;BME280;7542;49.078;9.194;2023-05-07T00:02:41;98509.53;;;30.33;30.99
14902;BME280;7542;49.078;9.194;2023-05-07T00:03:45;98506.03;;;30.32;30.75
14902;BME280;7542;49.078;9.194;2023-05-07T00:04:47;98506.81;;;30.33;30.51
14902;BME280;7542;49.078;9.194;2023-05-07T00:05:49;98499.31;;;30.29;30.77
14902;BME280;7542;49.078;9.194;2023-05-07T00:06:51;98508.53;;;30.28;30.98
14902;BME280;7542;49.078;9.194;2023-05-07T00:07:53;98504.19;;;30.27;30.90
14902;BME280;7542;49.078;9.194;2023-05-07T00:08:56;98498.78;;;30.27;30.62
14902;BME280;7542;49.078;9.194;2023-05-07T00:09:59;98506.91;;;30.27;30.54
14902;BME280;7542;49.078;9.194;2023-05-07T00:11:01;98505.31;;;30.26;30.73
14902;BME280;7542;49.078;9.194;2023-05-07T00:12:03;98497.19;;;30.26;30.64
14902;BME280;7542;49.078;9.194;2023-05-07T00:13:05;98506.41;;;30.25;30.47
14902;BME280;7542;49.078;9.194;2023-05-07T00:14:07;98498.91;;;30.22;30.74
14902;BME280;7542;49.078;9.194;2023-05-07T00:15:10;98506.72;;;30.24;30.77
14902;BME280;7542;49.078;9.194;2023-05-07T00:16:12;98504.81;;;30.24;30.45
14902;BME280;7542;49.078;9.194;2023-05-07T00:17:14;98502.09;;;30.24;30.81
14902;BME280;7542;49.078;9.194;2023-05-07T00:18:16;98496.19;;;30.22;31.15
14902;BME280;7542;49.078;9.194;2023-05-07T00:19:18;98508.13;;;30.21;31.01
14902;BME280;7542;49.078;9.194;2023-05-07T00:20:20;98502.72;;;30.21;30.88
14902;BME280;7542;49.078;9.194;2023-05-07T00:21:22;98503.81;;;30.20;30.85
14902;BME280;7542;49.078;9.194;2023-05-07T00:22:24;98509.53;;;30.19;30.62
14902;BME280;7542;49.078;9.194;2023-05-07T00:23:26;98502.53;;;30.18;30.91
14902;BME280;7542;49.078;9.194;2023-05-07T00:24:28;98503.31;;;30.18;30.81
14902;BME280;7542;49.078;9.194;2023-05-07T00:25:30;98503.31;;;30.18;30.74
14902;BME280;7542;49.078;9.194;2023-05-07T00:26:32;98506.28;;;30.17;30.97
14902;BME280;7542;49.078;9.194;2023-05-07T00:27:34;98500.09;;;30.16;30.64
14902;BME280;7542;49.078;9.194;2023-05-07T00:28:36;98498.97;;;30.17;31.12
14902;BME280;7542;49.078;9.194;2023-05-07T00:29:39;98493.06;;;30.15;30.56
14902;BME280;7542;49.078;9.194;2023-05-07T00:30:40;98500.09;;;30.16;30.82
14902;BME280;7542;49.078;9.194;2023-05-07T00:31:42;98499.28;;;30.16;31.08
14902;BME280;7542;49.078;9.194;2023-05-07T00:32:44;98487.19;;;30.13;31.00
14902;BME280;7542;49.078;9.194;2023-05-07T00:33:47;98491.78;;;30.13;30.94
14902;BME280;7542;49.078;9.194;2023-05-07T00:34:49;98487.19;;;30.13;30.79
14902;BME280;7542;49.078;9.194;2023-05-07T00:35:52;98481.75;;;30.13;30.94
14902;BME280;7542;49.078;9.194;2023-05-07T00:36:55;98485.56;;;30.12;30.83
14902;BME280;7542;49.078;9.194;2023-05-07T00:37:58;98485.56;;;30.12;30.70
14902;BME280;7542;49.078;9.194;2023-05-07T00:39:00;98481.28;;;30.11;30.50
14902;BME280;7542;49.078;9.194;2023-05-07T00:40:06;98485.88;;;30.11;31.05
14902;BME280;7542;49.078;9.194;2023-05-07T00:41:09;98486.97;;;30.10;31.17
14902;BME280;7542;49.078;9.194;2023-05-07T00:42:11;98489.69;;;30.10;31.09
14902;BME280;7542;49.078;9.194;2023-05-07T00:43:14;98481.06;;;30.08;31.11
14902;BME280;7542;49.078;9.194;2023-05-07T00:44:16;98486.47;;;30.08;30.89
14902;BME280;7542;49.078;9.194;2023-05-07T00:45:19;98480.28;;;30.07;30.63
14902;BME280;7542;49.078;9.194;2023-05-07T00:46:22;98487.84;;;30.05;31.09
14902;BME280;7542;49.078;9.194;2023-05-07T00:47:25;98483.22;;;30.06;30.93
14902;BME280;7542;49.078;9.194;2023-05-07T00:48:28;98485.13;;;30.05;30.81
14902;BME280;7542;49.078;9.194;2023-05-07T00:49:39;98480.53;;;30.06;30.54
14902;BME280;7542;49.078;9.194;2023-05-07T00:50:44;98484.63;;;30.03;31.27
14902;BME280;7542;49.078;9.194;2023-05-07T00:51:47;98486.03;;;30.00;30.61
14902;BME280;7542;49.078;9.194;2023-05-07T00:52:50;98490.34;;;30.01;30.76
14902;BME280;7542;49.078;9.194;2023-05-07T00:53:52;98481.22;;;29.97;31.11
14902;BME280;7542;49.078;9.194;2023-05-07T00:54:54;98486.34;;;29.99;31.11
14902;BME280;7542;49.078;9.194;2023-05-07T00:55:57;98484.75;;;29.98;30.83
14902;BME280;7542;49.078;9.194;2023-05-07T00:56:59;98482.03;;;29.98;31.05
14902;BME280;7542;49.078;9.194;2023-05-07T00:58:01;98486.34;;;29.99;30.82
14902;BME280;7542;49.078;9.194;2023-05-07T00:59:03;98473.94;;;29.98;31.16
14902;BME280;7542;49.078;9.194;2023-05-07T01:00:06;98475.03;;;29.97;30.92
14902;BME280;7542;49.078;9.194;2023-05-07T01:01:10;98472.91;;;29.94;31.22
14902;BME280;7542;49.078;9.194;2023-05-07T01:02:13;98474.00;;;29.93;31.21
14902;BME280;7542;49.078;9.194;2023-05-07T01:03:15;98476.72;;;29.93;31.07
14902;BME280;7542;49.078;9.194;2023-05-07T01:04:17;98469.41;;;29.93;30.85
14902;BME280;7542;49.078;9.194;2023-05-07T01:05:23;98474.81;;;29.93;31.06
14902;BME280;7542;49.078;9.194;2023-05-07T01:06:29;98472.41;;;29.92;30.63
14902;BME280;7542;49.078;9.194;2023-05-07T01:07:33;98475.41;;;29.90;30.74
14902;BME280;7542;49.078;9.194;2023-05-07T01:08:36;98472.22;;;29.88;31.20
14902;BME280;7542;49.078;9.194;2023-05-07T01:09:41;98473.81;;;29.89;30.72
14902;BME280;7542;49.078;9.194;2023-05-07T01:10:44;98471.91;;;29.90;31.00
14902;BME280;7542;49.078;9.194;2023-05-07T01:11:49;98479.53;;;29.88;30.77
14902;BME280;7542;49.078;9.194;2023-05-07T01:12:53;98472.50;;;29.87;30.93
14902;BME280;7542;49.078;9.194;2023-05-07T01:13:58;98473.63;;;29.86;31.10
14902;BME280;7542;49.078;9.194;2023-05-07T01:15:02;98477.91;;;29.87;31.02
14902;BME280;7542;49.078;9.194;2023-05-07T01:16:05;98472.81;;;29.85;30.78
14902;BME280;7542;49.078;9.194;2023-05-07T01:17:07;98476.59;;;29.84;31.15
14902;BME280;7542;49.078;9.194;2023-05-07T01:18:10;98469.88;;;29.82;31.11
14902;BME280;7542;49.078;9.194;2023-05-07T01:19:12;98471.50;;;29.83;30.98
14902;BME280;7542;49.078;9.194;2023-05-07T01:20:18;98463.38;;;29.83;31.13
14902;BME280;7542;49.078;9.194;2023-05-07T01:21:25;98460.97;;;29.81;30.97
14902;BME280;7542;49.078;9.194;2023-05-07T01:22:35;98458.28;;;29.81;31.20
14902;BME280;7542;49.078;9.194;2023-05-07T01:23:39;98465.88;;;29.79;30.84
14902;BME280;7542;49.078;9.194;2023-05-07T01:24:42;98465.88;;;29.79;31.14
14902;BME280;7542;49.078;9.194;2023-05-07T01:25:54;98456.97;;;29.79;31.15
14902;BME280;7542;49.078;9.194;2023-05-07T01:26:57;98460.78;;;29.78;31.17
14902;BME280;7542;49.078;9.194;2023-05-07T01:27:59;98462.69;;;29.77;31.32
14902;BME280;7542;49.078;9.194;2023-05-07T01:29:04;98457.28;;;29.77;31.25
14902;BME280;7542;49.078;9.194;2023-05-07T01:30:06;98463.78;;;29.76;30.99
14902;BME280;7542;49.078;9.194;2023-05-07T01:31:09;98458.94;;;29.73;31.23
14902;BME280;7542;49.078;9.194;2023-05-07T01:32:13;98459.75;;;29.73;31.37
14902;BME280;7542;49.078;9.194;2023-05-07T01:33:20;98470.56;;;29.73;30.88
14902;BME280;7542;49.078;9.194;2023-05-07T01:34:30;98465.16;;;29.73;31.24
14902;BME280;7542;49.078;9.194;2023-05-07T01:35:39;98463.56;;;29.72;31.42
14902;BME280;7542;49.078;9.194;2023-05-07T01:36:44;98470.06;;;29.71;31.37
14902;BME280;7542;49.078;9.194;2023-05-07T01:37:47;98470.06;;;29.71;31.27
14902;BME280;7542;49.078;9.194;2023-05-07T01:38:50;98464.97;;;29.70;31.09
14902;BME280;7542;49.078;9.194;2023-05-07T01:39:53;98464.47;;;29.68;31.08
14902;BME280;7542;49.078;9.194;2023-05-07T01:40:56;98466.06;;;29.69;31.36
14902;BME280;7542;49.078;9.194;2023-05-07T01:41:59;98462.88;;;29.67;31.42
14902;BME280;7542;49.078;9.194;2023-05-07T01:43:05;98467.97;;;29.68;31.14
14902;BME280;7542;49.078;9.194;2023-05-07T01:44:10;98466.97;;;29.64;31.13
14902;BME280;7542;49.078;9.194;2023-05-07T01:45:14;98462.38;;;29.65;30.97
14902;BME280;7542;49.078;9.194;2023-05-07T01:46:18;98469.06;;;29.67;31.14
14902;BME280;7542;49.078;9.194;2023-05-07T01:47:21;98469.66;;;29.64;31.05
14902;BME280;7542;49.078;9.194;2023-05-07T01:48:25;98460.75;;;29.64;31.08
14902;BME280;7542;49.078;9.194;2023-05-07T01:49:27;98474.28;;;29.64;31.13
14902;BME280;7542;49.078;9.194;2023-05-07T01:50:31;98461.03;;;29.62;31.21
14902;BME280;7542;49.078;9.194;2023-05-07T01:51:34;98461.63;;;29.59;31.42
14902;BME280;7542;49.078;9.194;2023-05-07T01:52:40;98463.75;;;29.62;31.33
14902;BME280;7542;49.078;9.194;2023-05-07T01:53:41;98464.84;;;29.61;31.18
14902;BME280;7542;49.078;9.194;2023-05-07T01:54:45;98459.44;;;29.61;31.36
14902;BME280;7542;49.078;9.194;2023-05-07T01:55:47;98461.34;;;29.61;31.53
14902;BME280;7542;49.078;9.194;2023-05-07T01:56:49;98461.63;;;29.59;31.44
14902;BME280;7542;49.078;9.194;2023-05-07T01:57:51;98460.34;;;29.57;31.53
14902;BME280;7542;49.078;9.194;2023-05-07T01:58:53;98462.25;;;29.56;31.29
14902;BME280;7542;49.078;9.194;2023-05-07T01:59:55;98462.25;;;29.56;31.29
14902;BME280;7542;49.078;9.194;2023-05-07T02:00:57;98458.75;;;29.56;31.61
14902;BME280;7542;49.078;9.194;2023-05-07T02:01:59;98459.53;;;29.56;31.14
14902;BME280;7542;49.078;9.194;2023-05-07T02:03:01;98462.53;;;29.55;31.63
14902;BME280;7542;49.078;9.194;2023-05-07T02:04:03;98458.75;;;29.56;31.72
14902;BME280;7542;49.078;9.194;2023-05-07T02:05:06;98451.22;;;29.53;31.47
14902;BME280;7542;49.078;9.194;2023-05-07T02:06:08;98460.94;;;29.54;31.45
14902;BME280;7542;49.078;9.194;2023-05-07T02:07:10;98460.13;;;29.53;31.40
14902;BME280;7542;49.078;9.194;2023-05-07T02:08:12;98459.34;;;29.53;31.42
14902;BME280;7542;49.078;9.194;2023-05-07T02:09:14;98465.00;;;29.51;31.51
14902;BME280;7542;49.078;9.194;2023-05-07T02:10:19;98463.63;;;29.54;31.63
14902;BME280;7542;49.078;9.194;2023-05-07T02:11:21;98465.00;;;29.51;31.19
14902;BME280;7542;49.078;9.194;2023-05-07T02:12:23;98463.41;;;29.50;31.75
14902;BME280;7542;49.078;9.194;2023-05-07T02:13:29;98468.25;;;29.53;31.47
14902;BME280;7542;49.078;9.194;2023-05-07T02:14:31;98467.22;;;29.49;31.67
14902;BME280;7542;49.078;9.194;2023-05-07T02:15:33;98465.00;;;29.51;31.39
14902;BME280;7542;49.078;9.194;2023-05-07T02:16:35;98467.22;;;29.49;31.73
14902;BME280;7542;49.078;9.194;2023-05-07T02:18:00;98471.22;;;29.52;31.40
14902;BME280;7542;49.078;9.194;2023-05-07T02:19:02;98467.22;;;29.49;31.22
14902;BME280;7542;49.078;9.194;2023-05-07T02:20:05;98477.50;;;29.47;31.19
14902;BME280;7542;49.078;9.194;2023-05-07T02:21:09;98477.50;;;29.47;31.61
14902;BME280;7542;49.078;9.194;2023-05-07T02:22:10;98473.50;;;29.44;31.62
14902;BME280;7542;49.078;9.194;2023-05-07T02:23:13;98475.09;;;29.45;31.66
14902;BME280;7542;49.078;9.194;2023-05-07T02:24:15;98479.69;;;29.45;31.52
14902;BME280;7542;49.078;9.194;2023-05-07T02:25:17;98476.19;;;29.44;31.60
14902;BME280;7542;49.078;9.194;2023-05-07T02:26:19;98480.50;;;29.45;31.83
14902;BME280;7542;49.078;9.194;2023-05-07T02:27:23;98479.19;;;29.43;31.57
14902;BME280;7542;49.078;9.194;2023-05-07T02:28:25;98476.50;;;29.43;31.42
14902;BME280;7542;49.078;9.194;2023-05-07T02:29:27;98471.09;;;29.43;31.22
14902;BME280;7542;49.078;9.194;2023-05-07T02:30:28;98471.09;;;29.43;31.23
14902;BME280;7542;49.078;9.194;2023-05-07T02:31:30;98469.47;;;29.42;31.65
14902;BME280;7542;49.078;9.194;2023-05-07T02:32:33;98470.28;;;29.42;31.55
14902;BME280;7542;49.078;9.194;2023-05-07T02:33:35;98472.19;;;29.42;31.23
14902;BME280;7542;49.078;9.194;2023-05-07T02:34:38;98468.16;;;29.39;31.77
14902;BME280;7542;49.078;9.194;2023-05-07T02:35:40;98473.25;;;29.41;31.75
14902;BME280;7542;49.078;9.194;2023-05-07T02:36:42;98475.16;;;29.40;31.57
14902;BME280;7542;49.078;9.194;2023-05-07T02:37:44;98469.75;;;29.40;31.25
14902;BME280;7542;49.078;9.194;2023-05-07T02:38:46;98477.06;;;29.40;31.32
14902;BME280;7542;49.078;9.194;2023-05-07T02:39:48;98472.75;;;29.39;31.56
14902;BME280;7542;49.078;9.194;2023-05-07T02:40:50;98474.66;;;29.38;31.74
14902;BME280;7542;49.078;9.194;2023-05-07T02:41:52;98474.16;;;29.36;31.48
14902;BME280;7542;49.078;9.194;2023-05-07T02:42:53;98471.44;;;29.36;31.34
14902;BME280;7542;49.078;9.194;2023-05-07T02:43:56;98474.94;;;29.37;31.39
14902;BME280;7542;49.078;9.194;2023-05-07T02:44:58;98473.06;;;29.37;31.47
14902;BME280;7542;49.078;9.194;2023-05-07T02:46:08;98474.94;;;29.37;31.68
14902;BME280;7542;49.078;9.194;2023-05-07T02:47:11;98477.16;;;29.35;31.36
14902;BME280;7542;49.078;9.194;2023-05-07T02:48:15;98472.84;;;29.34;31.43
14902;BME280;7542;49.078;9.194;2023-05-07T02:49:16;98474.75;;;29.33;31.45
14902;BME280;7542;49.078;9.194;2023-05-07T02:50:18;98477.44;;;29.33;31.85
14902;BME280;7542;49.078;9.194;2023-05-07T02:51:22;98475.06;;;29.32;31.84
14902;BME280;7542;49.078;9.194;2023-05-07T02:52:26;98473.44;;;29.31;31.32
14902;BME280;7542;49.078;9.194;2023-05-07T02:53:28;98469.13;;;29.30;31.71
14902;BME280;7542;49.078;9.194;2023-05-07T02:54:31;98469.13;;;29.30;31.71
14902;BME280;7542;49.078;9.194;2023-05-07T02:55:33;98471.81;;;29.30;31.94
14902;BME280;7542;49.078;9.194;2023-05-07T02:56:35;98475.63;;;29.29;31.90
14902;BME280;7542;49.078;9.194;2023-05-07T02:57:37;98470.22;;;29.29;31.43
14902;BME280;7542;49.078;9.194;2023-05-07T02:58:39;98472.41;;;29.27;31.55
14902;BME280;7542;49.078;9.194;2023-05-07T02:59:42;98466.22;;;29.26;31.87
14902;BME280;7542;49.078;9.194;2023-05-07T03:00:44;98471.63;;;29.26;31.40
14902;BME280;7542;49.078;9.194;2023-05-07T03:01:46;98464.63;;;29.25;31.35
14902;BME280;7542;49.078;9.194;2023-05-07T03:02:48;98462.72;;;29.26;31.59
14902;BME280;7542;49.078;9.194;2023-05-07T03:03:50;98461.09;;;29.25;31.55
14902;BME280;7542;49.078;9.194;2023-05-07T03:04:52;98459.50;;;29.24;31.48
14902;BME280;7542;49.078;9.194;2023-05-07T03:05:54;98465.22;;;29.22;31.38
14902;BME280;7542;49.078;9.194;2023-05-07T03:06:56;98460.59;;;29.23;31.45
14902;BME280;7542;49.078;9.194;2023-05-07T03:07:58;98466.31;;;29.21;31.54
14902;BME280;7542;49.078;9.194;2023-05-07T03:09:01;98456.59;;;29.20;31.45
14902;BME280;7542;49.078;9.194;2023-05-07T03:10:04;98455.78;;;29.20;31.54
14902;BME280;7542;49.078;9.194;2023-05-07T03:11:06;98453.91;;;29.20;31.49
14902;BME280;7542;49.078;9.194;2023-05-07T03:12:08;98455.78;;;29.20;31.68
14902;BME280;7542;49.078;9.194;2023-05-07T03:13:10;98462.00;;;29.20;31.83
14902;BME280;7542;49.078;9.194;2023-05-07T03:14:12;98453.06;;;29.20;31.83
14902;BME280;7542;49.078;9.194;2023-05-07T03:15:14;98454.16;;;29.19;31.81
14902;BME280;7542;49.078;9.194;2023-05-07T03:16:16;98457.16;;;29.17;31.38
14902;BME280;7542;49.078;9.194;2023-05-07T03:17:18;98441.56;;;29.14;31.60
14902;BME280;7542;49.078;9.194;2023-05-07T03:18:20;98443.16;;;29.15;31.65
14902;BME280;7542;49.078;9.194;2023-05-07T03:19:22;98446.66;;;29.15;31.79
14902;BME280;7542;49.078;9.194;2023-05-07T03:20:24;98452.38;;;29.14;31.42
14902;BME280;7542;49.078;9.194;2023-05-07T03:21:26;98452.66;;;29.12;31.44
14902;BME280;7542;49.078;9.194;2023-05-07T03:22:28;98456.47;;;29.11;31.79
14902;BME280;7542;49.078;9.194;2023-05-07T03:23:30;98455.66;;;29.11;31.44
14902;BME280;7542;49.078;9.194;2023-05-07T03:24:32;98455.38;;;29.12;31.45
14902;BME280;7542;49.078;9.194;2023-05-07T03:25:34;98452.16;;;29.10;32.05
14902;BME280;7542;49.078;9.194;2023-05-07T03:26:36;98459.16;;;29.11;31.96
14902;BME280;7542;49.078;9.194;2023-05-07T03:27:38;98446.75;;;29.10;31.97
14902;BME280;7542;49.078;9.194;2023-05-07T03:28:40;98451.38;;;29.10;32.07
14902;BME280;7542;49.078;9.194;2023-05-07T03:29:42;98449.22;;;29.07;31.91
14902;BME280;7542;49.078;9.194;2023-05-07T03:30:44;98455.72;;;29.06;31.87
14902;BME280;7542;49.078;9.194;2023-05-07T03:31:46;98445.72;;;29.06;31.61
14902;BME280;7542;49.078;9.194;2023-05-07T03:32:48;98445.22;;;29.04;31.80
14902;BME280;7542;49.078;9.194;2023-05-07T03:33:56;98444.13;;;29.05;31.70
14902;BME280;7542;49.078;9.194;2023-05-07T03:34:58;98446.03;;;29.05;31.76
14902;BME280;7542;49.078;9.194;2023-05-07T03:36:01;98446.31;;;29.03;31.78
14902;BME280;7542;49.078;9.194;2023-05-07T03:37:03;98448.72;;;29.05;31.72
14902;BME280;7542;49.078;9.194;2023-05-07T03:38:05;98449.03;;;29.03;31.95
14902;BME280;7542;49.078;9.194;2023-05-07T03:39:07;98439.63;;;29.01;31.78
14902;BME280;7542;49.078;9.194;2023-05-07T03:40:10;98436.91;;;29.01;32.03
14902;BME280;7542;49.078;9.194;2023-05-07T03:41:13;98443.72;;;28.98;31.71
14902;BME280;7542;49.078;9.194;2023-05-07T03:42:15;98442.63;;;28.99;31.98
14902;BME280;7542;49.078;9.194;2023-05-07T03:43:17;98441.00;;;28.98;31.63
14902;BME280;7542;49.078;9.194;2023-05-07T03:44:19;98440.19;;;28.98;31.74
14902;BME280;7542;49.078;9.194;2023-05-07T03:45:21;98434.28;;;28.96;32.26
14902;BME280;7542;49.078;9.194;2023-05-07T03:46:23;98439.69;;;28.96;31.55
14902;BME280;7542;49.078;9.194;2023-05-07T03:47:27;98440.78;;;28.95;31.70
14902;BME280;7542;49.078;9.194;2023-05-07T03:48:29;98443.47;;;28.95;32.03
14902;BME280;7542;49.078;9.194;2023-05-07T03:49:31;98437.28;;;28.94;32.29
14902;BME280;7542;49.078;9.194;2023-05-07T03:50:33;98437.28;;;28.94;31.72
14902;BME280;7542;49.078;9.194;2023-05-07T03:51:35;98443.47;;;28.95;32.07
14902;BME280;7542;49.078;9.194;2023-05-07T03:52:37;98443.78;;;28.93;32.16
14902;BME280;7542;49.078;9.194;2023-05-07T03:53:39;98439.97;;;28.94;31.97
14902;BME280;7542;49.078;9.194;2023-05-07T03:54:41;98448.66;;;28.91;31.76
14902;BME280;7542;49.078;9.194;2023-05-07T03:55:43;98448.66;;;28.91;31.76
14902;BME280;7542;49.078;9.194;2023-05-07T03:56:45;98449.47;;;28.92;31.84
14902;BME280;7542;49.078;9.194;2023-05-07T03:57:47;98450.28;;;28.92;31.78
14902;BME280;7542;49.078;9.194;2023-05-07T03:58:48;98449.78;;;28.90;31.98
14902;BME280;7542;49.078;9.194;2023-05-07T03:59:50;98460.56;;;28.90;31.80
14902;BME280;7542;49.078;9.194;2023-05-07T04:00:53;98455.16;;;28.90;31.73
14902;BME280;7542;49.078;9.194;2023-05-07T04:01:55;98457.06;;;28.90;32.02
14902;BME280;7542;49.078;9.194;2023-05-07T04:02:57;98451.13;;;28.87;32.04
14902;BME280;7542;49.078;9.194;2023-05-07T04:03:59;98456.78;;;28.86;31.65
14902;BME280;7542;49.078;9.194;2023-05-07T04:05:01;98454.91;;;28.86;31.79
14902;BME280;7542;49.078;9.194;2023-05-07T04:06:03;98457.09;;;28.84;31.75
14902;BME280;7542;49.078;9.194;2023-05-07T04:07:05;98454.91;;;28.86;32.06
14902;BME280;7542;49.078;9.194;2023-05-07T04:08:07;98462.19;;;28.86;31.76
14902;BME280;7542;49.078;9.194;2023-05-07T04:09:09;98466.78;;;28.85;31.97
14902;BME280;7542;49.078;9.194;2023-05-07T04:10:12;98469.78;;;28.84;31.87
14902;BME280;7542;49.078;9.194;2023-05-07T04:11:15;98469.78;;;28.84;32.00
14902;BME280;7542;49.078;9.194;2023-05-07T04:12:17;98462.78;;;28.83;31.98
14902;BME280;7542;49.078;9.194;2023-05-07T04:13:19;98473.59;;;28.83;32.02
14902;BME280;7542;49.078;9.194;2023-05-07T04:14:21;98478.97;;;28.83;32.16
14902;BME280;7542;49.078;9.194;2023-05-07T04:15:23;98474.69;;;28.82;31.62
14902;BME280;7542;49.078;9.194;2023-05-07T04:16:26;98474.97;;;28.80;31.77
14902;BME280;7542;49.078;9.194;2023-05-07T04:17:28;98480.38;;;28.80;31.95
14902;BME280;7542;49.078;9.194;2023-05-07T04:18:30;98483.88;;;28.81;31.75
14902;BME280;7542;49.078;9.194;2023-05-07T04:19:33;98471.19;;;28.81;31.76
14902;BME280;7542;49.078;9.194;2023-05-07T04:20:35;98485.75;;;28.80;31.87
14902;BME280;7542;49.078;9.194;2023-05-07T04:21:38;98479.56;;;28.80;31.75
14902;BME280;7542;49.078;9.194;2023-05-07T04:22:40;98488.47;;;28.80;31.84
14902;BME280;7542;49.078;9.194;2023-05-07T04:23:42;98490.38;;;28.80;31.84
14902;BME280;7542;49.078;9.194;2023-05-07T04:24:44;98489.56;;;28.79;31.87
14902;BME280;7542;49.078;9.194;2023-05-07T04:25:46;98491.75;;;28.77;31.90
14902;BME280;7542;49.078;9.194;2023-05-07T04:26:48;98486.63;;;28.76;32.01
14902;BME280;7542;49.078;9.194;2023-05-07T04:27:50;98491.22;;;28.75;31.99
14902;BME280;7542;49.078;9.194;2023-05-07T04:28:52;98486.63;;;28.76;32.13
14902;BME280;7542;49.078;9.194;2023-05-07T04:29:54;98495.00;;;28.74;32.04
14902;BME280;7542;49.078;9.194;2023-05-07T04:30:57;98488.81;;;28.74;32.01
14902;BME280;7542;49.078;9.194;2023-05-07T04:32:00;98483.41;;;28.74;31.98
14902;BME280;7542;49.078;9.194;2023-05-07T04:33:02;98486.13;;;28.74;31.84
14902;BME280;7542;49.078;9.194;2023-05-07T04:34:04;98487.72;;;28.75;31.83
14902;BME280;7542;49.078;9.194;2023-05-07T04:35:07;98488.00;;;28.73;32.11
14902;BME280;7542;49.078;9.194;2023-05-07T04:36:09;98489.09;;;28.72;31.59
14902;BME280;7542;49.078;9.194;2023-05-07T04:37:11;98489.09;;;28.72;32.20
14902;BME280;7542;49.078;9.194;2023-05-07T04:38:13;98488.59;;;28.70;32.32
14902;BME280;7542;49.078;9.194;2023-05-07T04:39:15;98488.31;;;28.72;31.92
14902;BME280;7542;49.078;9.194;2023-05-07T04:40:17;98493.72;;;28.72;32.21
14902;BME280;7542;49.078;9.194;2023-05-07T04:41:19;98491.00;;;28.72;32.29
14902;BME280;7542;49.078;9.194;2023-05-07T04:42:21;98485.91;;;28.70;32.00
14902;BME280;7542;49.078;9.194;2023-05-07T04:43:23;98498.59;;;28.70;32.17
14902;BME280;7542;49.078;9.194;2023-05-07T04:44:25;98493.50;;;28.68;31.93
14902;BME280;7542;49.078;9.194;2023-05-07T04:45:27;98495.91;;;28.70;32.08
14902;BME280;7542;49.078;9.194;2023-05-07T04:46:30;98494.88;;;28.66;32.08
14902;BME280;7542;49.078;9.194;2023-05-07T04:47:33;98494.59;;;28.67;32.21
14902;BME280;7542;49.078;9.194;2023-05-07T04:48:35;98493.78;;;28.67;32.14
14902;BME280;7542;49.078;9.194;2023-05-07T04:49:40;98490.56;;;28.65;31.98
14902;BME280;7542;49.078;9.194;2023-05-07T04:50:42;98495.16;;;28.64;32.11
14902;BME280;7542;49.078;9.194;2023-05-07T04:51:44;98491.09;;;28.67;31.95
14902;BME280;7542;49.078;9.194;2023-05-07T04:52:46;98495.94;;;28.65;31.85
14902;BME280;7542;49.078;9.194;2023-05-07T04:53:49;98497.56;;;28.66;31.96
14902;BME280;7542;49.078;9.194;2023-05-07T04:54:51;98498.94;;;28.63;32.25
14902;BME280;7542;49.078;9.194;2023-05-07T04:55:56;98503.25;;;28.64;32.04
14902;BME280;7542;49.078;9.194;2023-05-07T04:56:58;98506.75;;;28.65;31.93
14902;BME280;7542;49.078;9.194;2023-05-07T04:58:00;98506.22;;;28.63;31.99
14902;BME280;7542;49.078;9.194;2023-05-07T04:59:03;98502.72;;;28.62;31.98
14902;BME280;7542;49.078;9.194;2023-05-07T05:00:06;98498.94;;;28.63;32.26
14902;BME280;7542;49.078;9.194;2023-05-07T05:01:10;98504.63;;;28.62;32.22
14902;BME280;7542;49.078;9.194;2023-05-07T05:02:13;98510.81;;;28.62;32.23
14902;BME280;7542;49.078;9.194;2023-05-07T05:03:15;98510.03;;;28.62;32.32
14902;BME280;7542;49.078;9.194;2023-05-07T05:04:17;98507.31;;;28.62;32.04
14902;BME280;7542;49.078;9.194;2023-05-07T05:05:19;98509.22;;;28.61;31.90
14902;BME280;7542;49.078;9.194;2023-05-07T05:06:21;98501.41;;;28.59;31.89
14902;BME280;7542;49.078;9.194;2023-05-07T05:07:23;98509.50;;;28.59;32.27
14902;BME280;7542;49.078;9.194;2023-05-07T05:08:25;98512.72;;;28.62;32.06
14902;BME280;7542;49.078;9.194;2023-05-07T05:09:28;98513.00;;;28.60;32.28
14902;BME280;7542;49.078;9.194;2023-05-07T05:10:30;98510.31;;;28.60;32.23
14902;BME280;7542;49.078;9.194;2023-05-07T05:11:32;98508.72;;;28.59;32.88
14902;BME280;7542;49.078;9.194;2023-05-07T05:12:34;98512.22;;;28.59;32.24
14902;BME280;7542;49.078;9.194;2023-05-07T05:13:36;98505.22;;;28.58;32.48
14902;BME280;7542;49.078;9.194;2023-05-07T05:14:38;98510.59;;;28.58;32.30
14902;BME280;7542;49.078;9.194;2023-05-07T05:15:40;98513.81;;;28.61;32.16
14902;BME280;7542;49.078;9.194;2023-05-07T05:16:42;98510.31;;;28.60;32.52
14902;BME280;7542;49.078;9.194;2023-05-07T05:17:44;98520.81;;;28.62;31.81
14902;BME280;7542;49.078;9.194;2023-05-07T05:18:46;98513.00;;;28.60;32.17
14902;BME280;7542;49.078;9.194;2023-05-07T05:19:48;98517.59;;;28.59;32.45
14902;BME280;7542;49.078;9.194;2023-05-07T05:20:51;98515.72;;;28.60;32.41
14902;BME280;7542;49.078;9.194;2023-05-07T05:21:53;98516.00;;;28.58;32.33
14902;BME280;7542;49.078;9.194;2023-05-07T05:22:55;98519.50;;;28.59;32.26
14902;BME280;7542;49.078;9.194;2023-05-07T05:23:58;98519.50;;;28.59;32.45
14902;BME280;7542;49.078;9.194;2023-05-07T05:25:00;98520.81;;;28.62;32.23
14902;BME280;7542;49.078;9.194;2023-05-07T05:26:02;98516.50;;;28.61;32.35
14902;BME280;7542;49.078;9.194;2023-05-07T05:27:05;98520.00;;;28.61;32.35
14902;BME280;7542;49.078;9.194;2023-05-07T05:28:07;98524.59;;;28.61;32.47
14902;BME280;7542;49.078;9.194;2023-05-07T05:29:09;98523.00;;;28.59;32.39
14902;BME280;7542;49.078;9.194;2023-05-07T05:30:12;98519.50;;;28.59;32.58
14902;BME280;7542;49.078;9.194;2023-05-07T05:31:14;98521.91;;;28.61;32.70
14902;BME280;7542;49.078;9.194;2023-05-07T05:32:16;98512.22;;;28.59;32.36
14902;BME280;7542;49.078;9.194;2023-05-07T05:33:18;98522.41;;;28.63;32.64
14902;BME280;7542;49.078;9.194;2023-05-07T05:34:20;98520.00;;;28.61;32.74
14902;BME280;7542;49.078;9.194;2023-05-07T05:35:22;98520.81;;;28.62;32.75
14902;BME280;7542;49.078;9.194;2023-05-07T05:36:24;98520.81;;;28.62;32.54